Time;durP1;ratioP1;P1;durP2;ratioP2;P2;SDS_P1;SDS_P2;PMS_P1;PMS_P2;Temp;Humidity;BMP_temperature;BMP_pressure;BME280_temperature;BME280_humidity;BME280_pressure;Samples;Min_cycle;Max_cycle;Signal;HPM_P1;HPM_P2
2022/01/10 00:00:11;;;;;;;12.43;6.80;;;;;;;-5.40;81.53;98864.84;4995409;28;20411;-78
2022/01/10 00:02:40;;;;;;;12.48;6.88;;;;;;;-5.37;82.08;98859.03;4996933;28;20060;-77
2022/01/10 00:05:07;;;;;;;10.77;6.20;;;;;;;-5.35;82.20;98866.72;5011693;28;20081;-78
2022/01/10 00:07:32;;;;;;;;;;;;;;;-5.39;82.00;98873.28;4995727;28;20034;-79
2022/01/10 00:09:58;;;;;;;11.27;6.88;;;;;;;-5.41;81.89;98870.69;5011724;28;19924;-79
2022/01/10 00:12:23;;;;;;;13.57;6.43;;;;;;;-5.39;82.50;98863.19;5011331;28;20069;-79
2022/01/10 00:14:49;;;;;;;14.52;6.85;;;;;;;-5.41;81.77;98857.19;5010588;28;20386;-78
2022/01/10 00:17:15;;;;;;;11.40;6.55;;;;;;;-5.42;82.44;98847.88;4995021;28;20496;-78
2022/01/10 00:19:40;;;;;;;11.75;7.32;;;;;;;-5.38;81.86;98862.38;4979135;28;20053;-78
2022/01/10 00:22:08;;;;;;;12.57;7.03;;;;;;;-5.42;81.60;98852.94;5011482;28;20034;-77
2022/01/10 00:24:33;;;;;;;14.68;7.57;;;;;;;-5.36;82.18;98853.19;5011421;28;20045;-77
2022/01/10 00:26:59;;;;;;;10.80;6.55;;;;;;;-5.33;81.83;98855.88;5011266;28;20117;-78
2022/01/10 00:29:25;;;;;;;10.48;6.40;;;;;;;-5.39;81.75;98843.81;4994887;28;20041;-77
2022/01/10 00:31:50;;;;;;;12.52;6.85;;;;;;;-5.35;81.59;98843.97;5011665;28;20033;-77
2022/01/10 00:34:16;;;;;;;12.55;6.57;;;;;;;-5.31;81.73;98853.41;4995488;28;20045;-77
2022/01/10 00:36:42;;;;;;;14.20;6.65;;;;;;;-5.33;81.76;98853.34;4995321;28;20041;-77
2022/01/10 00:39:08;;;;;;;12.32;7.28;;;;;;;-5.39;81.18;98843.81;4978902;28;20169;-77
2022/01/10 00:41:33;;;;;;;16.67;7.38;;;;;;;-5.35;81.86;98843.97;4978846;28;20084;-78
2022/01/10 00:44:01;;;;;;;22.63;13.18;;;;;;;-5.35;81.44;98842.31;5011298;28;20053;-80
2022/01/10 00:46:27;;;;;;;13.48;7.47;;;;;;;-5.35;81.78;98839.78;4979017;28;20080;-76
2022/01/10 00:48:55;;;;;;;;;;;;;;;-5.37;81.81;98841.34;4979169;28;20498;-76
2022/01/10 00:51:21;;;;;;;12.77;7.10;;;;;;;-5.36;81.91;98843.06;5011188;28;19944;-76
2022/01/10 00:53:49;;;;;;;13.82;7.75;;;;;;;-5.37;82.24;98843.88;4994772;28;20080;-77
2022/01/10 00:56:16;;;;;;;13.07;7.45;;;;;;;-5.33;82.26;98840.69;5010898;28;20069;-76
2022/01/10 00:58:41;;;;;;;16.35;6.93;;;;;;;-5.32;81.67;98842.44;5011095;28;20034;-77
2022/01/10 01:01:07;;;;;;;14.32;6.82;;;;;;;-5.34;81.75;98830.53;4994748;28;20560;-77
2022/01/10 01:03:33;;;;;;;12.48;6.63;;;;;;;-5.33;81.97;98824.69;4995066;28;20052;-77
2022/01/10 01:05:59;;;;;;;12.07;6.45;;;;;;;-5.39;81.91;98812.63;4982577;28;20030;-76
2022/01/10 01:08:31;;;;;;;12.90;6.88;;;;;;;-5.27;81.96;98830.00;4998344;28;20050;-77
2022/01/10 01:13:59;;;;;;;15.85;7.82;;;;;;;-5.27;81.76;98832.53;5000853;28;20049;-77
2022/01/10 01:24:29;;;;;;;15.65;7.95;;;;;;;-5.33;81.84;98823.00;5000987;28;20045;-77
2022/01/10 01:26:54;;;;;;;16.25;8.45;;;;;;;-5.31;81.51;98820.53;4997999;28;20057;-77
2022/01/10 01:29:25;;;;;;;14.82;8.27;;;;;;;-5.30;81.74;98828.22;4982046;28;20045;-77
2022/01/10 01:31:51;;;;;;;14.10;7.90;;;;;;;-5.29;81.81;98819.81;4998197;28;20124;-78
2022/01/10 01:34:17;;;;;;;16.35;8.00;;;;;;;-5.28;81.72;98813.97;4997817;28;20042;-78
2022/01/10 01:36:46;;;;;;;14.50;8.10;;;;;;;-5.25;82.00;98819.16;4981621;28;20417;-77
2022/01/10 01:39:21;;;;;;;15.80;7.40;;;;;;;-5.29;82.14;98809.72;4982111;28;20056;-78
2022/01/10 01:41:56;;;;;;;13.85;7.70;;;;;;;-5.31;81.75;98813.84;4984702;28;20133;-78
2022/01/10 01:44:22;;;;;;;15.68;7.78;;;;;;;-5.31;81.61;98811.31;4982450;28;20134;-77
2022/01/10 01:46:48;;;;;;;16.85;8.27;;;;;;;-5.33;81.83;98822.16;4981479;28;20124;-77
2022/01/10 01:49:14;;;;;;;15.75;8.65;;;;;;;-5.39;81.97;98818.56;4981114;28;20452;-78
2022/01/10 01:51:41;;;;;;;16.00;8.63;;;;;;;-5.37;81.69;98821.13;5013709;28;20034;-77
2022/01/10 01:54:08;;;;;;;15.07;8.43;;;;;;;-5.34;82.10;98815.38;4998102;28;20049;-77
2022/01/10 01:56:34;;;;;;;14.02;7.80;;;;;;;-5.32;81.81;98816.28;4965055;28;20054;-78
2022/01/10 01:59:00;;;;;;;;;;;;;;;-5.32;82.43;98817.16;4965875;28;20515;-77
2022/01/10 02:01:26;;;;;;;13.70;8.27;;;;;;;-5.34;82.06;98816.22;5013451;28;19917;-78
2022/01/10 02:03:52;;;;;;;15.48;8.43;;;;;;;-5.37;82.04;98808.50;4997430;28;20038;-78
2022/01/10 02:06:24;;;;;;;15.32;7.97;;;;;;;-5.32;82.12;98814.63;4982515;28;20029;-77
2022/01/10 02:08:49;;;;;;;14.35;8.00;;;;;;;-5.29;82.54;98814.78;4997315;28;20405;-77
2022/01/10 02:11:15;;;;;;;15.65;8.77;;;;;;;-5.30;82.42;98813.03;5013602;28;20477;-77
2022/01/10 02:13:41;;;;;;;;;;;;;;;-5.27;82.36;98813.16;4997526;28;20041;-78
2022/01/10 02:16:32;;;;;;;18.45;8.50;;;;;;;-5.28;82.46;98808.91;4998873;28;19924;-78
2022/01/10 02:18:59;;;;;;;17.45;7.97;;;;;;;-5.29;82.40;98814.78;4998556;28;20136;-77
2022/01/10 02:21:24;;;;;;;15.90;8.75;;;;;;;-5.37;81.81;98808.50;4980666;28;20397;-77
2022/01/10 02:23:51;;;;;;;17.45;8.30;;;;;;;-5.32;82.41;98809.56;4980979;28;20041;-78
2022/01/10 02:26:22;;;;;;;17.00;9.05;;;;;;;-5.28;82.49;98813.09;4966876;28;20112;-78
2022/01/10 02:28:48;;;;;;;14.95;8.45;;;;;;;-5.28;82.27;98810.56;4996622;28;20045;-78
2022/01/10 02:31:14;;;;;;;19.02;9.38;;;;;;;-5.37;82.00;98808.50;4996708;28;20389;-78
2022/01/10 02:33:40;;;;;;;17.90;9.52;;;;;;;-5.40;82.47;98809.25;5013436;28;20046;-78
2022/01/10 02:38:35;;;;;;;17.98;8.93;;;;;;;-5.31;82.77;98815.47;4996676;28;20044;-77
2022/01/10 02:41:01;;;;;;;18.35;9.45;;;;;;;-5.30;82.31;98813.03;4996841;28;20042;-78
2022/01/10 02:43:28;;;;;;;17.60;8.88;;;;;;;-5.29;82.08;98809.72;4996660;28;20048;-77
2022/01/10 02:45:56;;;;;;;14.85;9.07;;;;;;;-5.26;82.40;98809.00;4996548;28;20041;-78
2022/01/10 02:48:22;;;;;;;18.20;9.15;;;;;;;-5.24;82.35;98803.19;4979934;28;20045;-77
2022/01/10 02:50:48;;;;;;;;;;;;;;;-5.25;82.35;98805.66;4996599;28;20084;-78
2022/01/10 02:53:14;;;;;;;18.20;9.02;;;;;;;-5.28;82.34;98808.91;4996178;28;19917;-77
2022/01/10 02:55:41;;;;;;;16.20;9.25;;;;;;;-5.24;82.50;98812.44;5012365;28;20093;-76
2022/01/10 02:58:10;;;;;;;17.52;9.43;;;;;;;-5.24;82.32;98815.84;4980898;28;20452;-77
2022/01/10 03:00:36;;;;;;;19.75;10.38;;;;;;;-5.24;82.42;98808.25;4979766;28;20037;-76
2022/01/10 03:03:06;;;;;;;17.98;10.05;;;;;;;-5.27;82.09;98810.63;4996045;28;20050;-76
2022/01/10 03:05:33;;;;;;;16.98;9.73;;;;;;;-5.31;82.48;98805.38;4996720;28;20041;-77
2022/01/10 03:08:01;;;;;;;18.58;10.30;;;;;;;-5.28;82.50;98808.91;4963669;28;20030;-76
2022/01/10 03:10:28;;;;;;;62.67;34.15;;;;;;;-5.24;81.99;98808.25;4980498;28;20057;-78
2022/01/10 03:12:53;;;;;;;18.40;10.60;;;;;;;-5.21;82.58;98808.41;4995985;28;20088;-78
2022/01/10 03:15:19;;;;;;;18.95;10.13;;;;;;;-5.22;81.93;98811.72;4979998;28;20053;-78
2022/01/10 03:17:47;;;;;;;18.38;9.65;;;;;;;-5.21;81.84;98823.56;4980122;28;20083;-78
2022/01/10 03:20:13;;;;;;;16.33;8.88;;;;;;;-5.18;81.81;98827.88;5012005;28;20057;-78
2022/01/10 03:22:39;;;;;;;22.48;13.05;;;;;;;-5.19;82.08;98824.47;5012047;28;20489;-78
2022/01/10 03:25:05;;;;;;;17.50;10.05;;;;;;;-5.23;81.58;98825.16;5011383;28;20140;-78
2022/01/10 03:27:33;;;;;;;18.27;10.00;;;;;;;-5.28;82.12;98820.69;4995570;28;20050;-78
2022/01/10 03:29:59;;;;;;;18.08;10.50;;;;;;;-5.25;81.77;98814.13;5011853;28;20477;-79
2022/01/10 03:32:25;;;;;;;19.40;10.18;;;;;;;-5.24;81.95;98818.38;4978558;28;20076;-78
2022/01/10 03:34:57;;;;;;;18.95;10.52;;;;;;;-5.19;81.61;98821.09;4980711;28;20030;-76
2022/01/10 03:37:24;;;;;;;20.38;10.00;;;;;;;-5.19;81.96;98811.84;4980181;28;20042;-76
2022/01/10 03:39:51;;;;;;;16.80;9.75;;;;;;;-5.16;82.76;98809.47;4995719;28;20034;-76
2022/01/10 03:42:16;;;;;;;18.38;9.60;;;;;;;-5.18;82.34;98802.59;4995349;28;20141;-76
2022/01/10 03:44:42;;;;;;;19.20;10.30;;;;;;;-5.18;81.87;98800.06;4979066;28;20046;-78
2022/01/10 03:47:10;;;;;;;20.05;8.98;;;;;;;-5.19;82.05;98796.66;4995238;28;20404;-76
2022/01/10 03:49:36;;;;;;;17.50;9.88;;;;;;;-5.20;81.95;98801.66;4979874;28;20405;-76
2022/01/10 03:52:03;;;;;;;19.02;9.65;;;;;;;-5.25;81.88;98795.56;5011855;28;20064;-76
2022/01/10 03:54:29;;;;;;;20.13;10.45;;;;;;;-5.28;81.69;98796.28;4995447;28;20045;-75
2022/01/10 03:56:56;;;;;;;21.05;12.65;;;;;;;-5.21;81.67;98794.91;4978577;28;20084;-77
2022/01/10 03:59:22;;;;;;;19.55;10.13;;;;;;;-5.27;81.76;98797.13;5011499;28;20065;-77
2022/01/10 04:01:50;;;;;;;15.55;9.10;;;;;;;-5.25;81.60;98800.59;4995452;28;20122;-77
2022/01/10 04:04:17;;;;;;;18.83;10.10;;;;;;;-5.27;81.50;98807.25;4995358;28;20053;-78
2022/01/10 04:06:43;;;;;;;17.38;8.85;;;;;;;-5.23;82.16;98797.34;4982797;28;20089;-77
2022/01/10 04:09:09;;;;;;;23.55;13.38;;;;;;;-5.26;82.22;98797.22;4960277;28;20358;-77
2022/01/10 04:11:35;;;;;;;31.80;18.20;;;;;;;-5.26;81.79;98797.22;4975684;28;20046;-77
2022/01/10 04:14:00;;;;;;;;;;;;;;;-5.30;81.77;98808.00;4959869;28;20050;-77
2022/01/10 04:16:26;;;;;;;35.97;20.48;;;;;;;-5.27;81.73;98802.19;4975365;28;20056;-77
2022/01/10 04:18:52;;;;;;;22.92;11.98;;;;;;;-5.28;81.88;98797.94;4975888;28;20034;-77
2022/01/10 04:21:18;;;;;;;16.85;9.25;;;;;;;-5.30;81.85;98797.88;4963290;28;20505;-77
2022/01/10 04:23:43;;;;;;;17.90;9.60;;;;;;;-5.37;81.24;98806.84;4962914;28;20153;-77
2022/01/10 04:26:09;;;;;;;17.17;9.88;;;;;;;-5.32;81.11;98814.63;5011523;28;20049;-78
2022/01/10 04:28:36;;;;;;;17.48;10.00;;;;;;;-5.32;82.24;98804.50;4994885;28;20088;-78
2022/01/10 04:31:04;;;;;;;18.00;10.27;;;;;;;-5.32;82.45;98804.50;5011271;28;20081;-78
2022/01/10 04:33:30;;;;;;;18.50;9.52;;;;;;;-5.33;81.79;98807.84;4979226;28;20058;-78
2022/01/10 04:35:57;;;;;;;18.08;9.10;;;;;;;-5.40;81.49;98804.19;4994745;28;20045;-77
2022/01/10 04:38:23;;;;;;;;;;;;;;;-5.39;81.62;98808.44;5011516;28;20026;-77
2022/01/10 04:40:48;;;;;;;20.40;9.73;;;;;;;-5.38;81.51;98804.25;5015158;28;19917;-77
2022/01/10 04:43:15;;;;;;;22.95;11.73;;;;;;;-5.31;81.57;98813.84;4982837;28;20481;-77
2022/01/10 04:45:42;;;;;;;20.42;10.02;;;;;;;-5.30;81.75;98820.63;4998267;28;20077;-76
2022/01/10 04:48:08;;;;;;;23.50;11.88;;;;;;;-5.39;80.96;98813.50;4998791;28;20034;-78
2022/01/10 04:53:21;;;;;;;15.95;9.00;;;;;;;-5.34;80.84;98815.38;4987011;28;20052;-77
2022/01/10 04:55:47;;;;;;;16.13;8.75;;;;;;;-5.35;81.01;98822.09;4982010;28;20040;-76
2022/01/10 04:58:12;;;;;;;14.73;7.80;;;;;;;-5.34;81.16;98823.81;4998484;28;20529;-79
2022/01/10 05:00:38;;;;;;;16.92;8.80;;;;;;;-5.35;81.13;98819.56;4966151;28;20045;-78
2022/01/10 05:03:04;;;;;;;16.58;8.43;;;;;;;-5.34;81.90;98826.34;4981921;28;20049;-78
2022/01/10 05:05:30;;;;;;;20.33;8.90;;;;;;;-5.32;81.67;98824.72;4982212;28;20060;-78
2022/01/10 05:07:56;;;;;;;17.10;9.63;;;;;;;-5.32;81.33;98824.72;4982360;28;20492;-77
2022/01/10 05:10:22;;;;;;;17.83;9.75;;;;;;;-5.28;81.68;98829.13;4982500;28;20037;-77
2022/01/10 05:12:48;;;;;;;16.20;8.65;;;;;;;-5.23;81.61;98832.72;4998332;28;20026;-77
2022/01/10 05:15:14;;;;;;;17.05;9.20;;;;;;;-5.24;81.34;98841.13;4998513;28;20053;-77
2022/01/10 05:17:39;;;;;;;17.77;9.23;;;;;;;-5.26;81.01;98841.88;4998045;28;20041;-77
2022/01/10 05:20:06;;;;;;;17.38;9.07;;;;;;;-5.29;81.80;98842.56;4982138;28;20132;-77
2022/01/10 05:22:32;;;;;;;;;;;;;;;-5.33;81.72;98850.81;4982250;28;20053;-77
2022/01/10 05:24:58;;;;;;;19.10;9.88;;;;;;;-5.32;81.61;98841.56;5014687;28;19924;-76
2022/01/10 05:27:24;;;;;;;21.20;10.20;;;;;;;-5.39;81.46;98843.81;4997895;28;20397;-77
2022/01/10 05:29:52;;;;;;;22.38;11.85;;;;;;;-5.35;81.46;98846.50;4998342;28;20041;-79
2022/01/10 05:32:18;;;;;;;22.77;13.15;;;;;;;-5.36;81.44;98848.13;4981714;28;20060;-76
2022/01/10 05:35:03;;;;;;;23.08;11.25;;;;;;;-5.32;81.72;98849.16;5000300;28;20060;-77
2022/01/10 05:37:29;;;;;;;17.38;9.80;;;;;;;-5.28;81.38;98845.97;4997343;28;20604;-76
2022/01/10 05:39:54;;;;;;;21.98;10.32;;;;;;;-5.26;81.49;98855.38;4997673;28;20080;-77
2022/01/10 05:42:20;;;;;;;19.73;10.40;;;;;;;-5.25;81.43;98854.56;5014239;28;20053;-76
2022/01/10 05:44:47;;;;;;;19.63;10.45;;;;;;;-5.22;81.65;98859.75;4997761;28;20042;-77
2022/01/10 05:47:13;;;;;;;;;;;;;;;-5.25;81.20;98871.41;4998142;28;20128;-76
2022/01/10 05:49:46;;;;;;;19.10;9.55;;;;;;;-5.23;80.72;98873.19;5013469;28;20003;-78
2022/01/10 05:52:14;;;;;;;17.33;8.40;;;;;;;-5.21;81.42;98869.06;4998663;28;20066;-78
2022/01/10 05:54:40;;;;;;;22.55;11.77;;;;;;;-5.23;80.89;98875.72;4997599;28;20042;-79
2022/01/10 05:57:06;;;;;;;;;;;;;;;-5.27;80.96;98872.97;4998085;28;20093;-77
2022/01/10 05:59:36;;;;;;;24.10;11.25;;;;;;;-5.25;81.03;98873.91;4997982;28;19917;-76
2022/01/10 06:02:04;;;;;;;19.52;10.32;;;;;;;-5.21;81.05;98884.25;4981557;28;20045;-78
2022/01/10 06:04:31;;;;;;;22.50;10.82;;;;;;;-5.23;80.97;98878.22;4981582;28;20120;-78
2022/01/10 06:07:03;;;;;;;20.08;10.80;;;;;;;-5.18;81.40;98880.97;4997841;28;20045;-78
2022/01/10 06:09:30;;;;;;;21.45;10.35;;;;;;;-5.17;80.87;98877.66;5013798;28;20069;-76
2022/01/10 06:11:56;;;;;;;19.80;10.50;;;;;;;-5.18;80.92;98880.97;4981553;28;20392;-77
2022/01/10 06:14:22;;;;;;;;;;;;;;;-5.21;80.89;98881.72;5013821;28;20038;-77
2022/01/10 06:16:48;;;;;;;19.02;10.35;;;;;;;-5.20;80.54;98882.56;5014526;28;20435;-79
2022/01/10 06:19:15;;;;;;;19.13;10.00;;;;;;;-5.22;81.20;98877.47;5013563;28;20053;-78
2022/01/10 06:21:40;;;;;;;20.48;10.05;;;;;;;-5.23;80.79;98880.75;4981019;28;20029;-78
2022/01/10 06:24:06;;;;;;;19.83;10.55;;;;;;;-5.18;81.09;98883.50;4997332;28;20080;-77
2022/01/10 06:26:32;;;;;;;20.15;10.50;;;;;;;-5.25;80.66;98889.94;4997109;28;20030;-77
2022/01/10 06:28:59;;;;;;;21.13;10.88;;;;;;;-5.25;80.86;98887.44;4996431;28;20053;-78
2022/01/10 06:31:24;;;;;;;20.80;11.30;;;;;;;-5.32;80.81;98895.50;4980776;28;20038;-78
2022/01/10 06:33:59;;;;;;;21.38;11.65;;;;;;;-5.34;80.58;98901.31;4997369;28;20049;-77
2022/01/10 06:36:25;;;;;;;19.52;10.80;;;;;;;-5.24;81.29;98894.22;4980525;28;20050;-78
2022/01/10 06:38:52;;;;;;;16.40;9.35;;;;;;;-5.14;81.02;98896.34;4996867;28;20037;-77
2022/01/10 06:41:18;;;;;;;17.85;9.52;;;;;;;-5.12;80.87;98889.72;4996636;28;20045;-77
2022/01/10 06:43:45;;;;;;;19.58;9.85;;;;;;;-5.08;80.99;98900.84;4996722;28;20041;-77
2022/01/10 06:46:12;;;;;;;19.23;9.80;;;;;;;-5.08;80.86;98894.94;4996813;28;20437;-77
2022/01/10 06:48:38;;;;;;;20.45;10.13;;;;;;;-5.12;80.58;98894.78;4996555;28;20159;-78
2022/01/10 06:51:04;;;;;;;20.13;10.10;;;;;;;-5.23;80.24;98890.88;4996369;28;20069;-77
2022/01/10 06:53:31;;;;;;;21.60;11.60;;;;;;;-5.22;80.98;98896.81;4980732;28;20049;-77
2022/01/10 06:55:59;;;;;;;24.33;10.80;;;;;;;-5.21;81.65;98891.81;4996298;28;20066;-77
2022/01/10 06:58:24;;;;;;;19.42;10.82;;;;;;;-5.16;81.59;98897.09;5012824;28;20374;-79
2022/01/10 07:00:50;;;;;;;21.15;10.00;;;;;;;-5.11;80.85;98896.50;5012995;28;20456;-78
2022/01/10 07:03:16;;;;;;;22.65;9.82;;;;;;;-5.11;81.07;98899.03;5011889;28;20037;-78
2022/01/10 07:05:52;;;;;;;;;;;;;;;-5.09;81.08;98893.16;5013376;28;20046;-79
2022/01/10 07:08:20;;;;;;;18.85;9.95;;;;;;;-5.05;80.79;98900.09;5012525;28;19968;-76
2022/01/10 07:10:54;;;;;;;20.30;10.73;;;;;;;-5.06;80.44;98891.66;5012803;28;20052;-78
2022/01/10 07:13:23;;;;;;;17.63;9.63;;;;;;;-5.06;80.31;98893.31;5012292;28;20064;-79
2022/01/10 07:15:49;;;;;;;17.20;9.50;;;;;;;-5.01;80.83;98891.84;5012430;28;20513;-78
2022/01/10 07:18:15;;;;;;;21.98;10.80;;;;;;;-4.96;80.32;98892.91;4995807;28;20034;-79
2022/01/10 07:20:46;;;;;;;19.05;9.65;;;;;;;-4.98;79.77;98892.88;5012211;28;20034;-80
2022/01/10 07:23:13;;;;;;;19.80;9.82;;;;;;;-4.95;79.98;98902.22;5012132;28;20038;-79
2022/01/10 07:25:39;;;;;;;24.10;12.05;;;;;;;-4.93;80.04;98903.19;5012244;28;20030;-78
2022/01/10 07:28:04;;;;;;;28.35;14.63;;;;;;;-4.89;80.26;98905.91;5012188;28;20049;-80
2022/01/10 07:30:30;;;;;;;20.13;9.70;;;;;;;-4.88;79.74;98906.78;5011871;28;20437;-77
2022/01/10 07:32:56;;;;;;;17.27;8.88;;;;;;;-4.92;79.28;98902.38;5013304;28;20500;-78
2022/01/10 07:35:21;;;;;;;15.95;7.95;;;;;;;-4.96;79.35;98911.50;4995731;28;20029;-77
2022/01/10 07:37:47;;;;;;;17.60;7.47;;;;;;;-4.95;79.37;98903.13;4995855;28;20042;-77
2022/01/10 07:40:13;;;;;;;16.75;8.57;;;;;;;-4.88;80.03;98901.72;4996015;28;20041;-77
2022/01/10 07:42:38;;;;;;;14.75;8.07;;;;;;;-4.84;80.00;98892.63;4995542;28;20042;-79
2022/01/10 07:45:10;;;;;;;14.43;8.05;;;;;;;-4.87;79.22;98890.81;4996183;28;20045;-77
2022/01/10 07:47:35;;;;;;;16.00;7.70;;;;;;;-4.86;79.43;98893.41;4979394;28;20072;-77
2022/01/10 07:50:02;;;;;;;15.07;8.00;;;;;;;-4.87;79.61;98898.38;4995469;28;20128;-77
2022/01/10 07:52:29;;;;;;;15.85;7.32;;;;;;;-4.89;79.48;98898.34;4995653;28;20046;-78
2022/01/10 07:54:55;;;;;;;16.73;8.65;;;;;;;-4.87;79.56;98900.91;4996005;28;20037;-78
2022/01/10 07:57:21;;;;;;;14.63;8.40;;;;;;;-4.87;79.79;98901.78;5011478;28;20123;-77
2022/01/10 07:59:46;;;;;;;17.10;7.95;;;;;;;-4.92;79.50;98898.19;4979340;28;20072;-78
2022/01/10 08:02:12;;;;;;;15.88;7.28;;;;;;;-4.83;80.15;98900.25;5011824;28;20120;-79
2022/01/10 08:04:38;;;;;;;15.07;7.25;;;;;;;-4.83;79.64;98897.72;5011800;28;20092;-78
2022/01/10 08:07:04;;;;;;;16.88;8.02;;;;;;;-4.76;79.94;98898.88;5012951;28;20049;-78
2022/01/10 08:09:30;;;;;;;15.98;8.02;;;;;;;-4.89;79.42;98882.28;4995579;28;20045;-78
2022/01/10 08:11:59;;;;;;;17.20;7.40;;;;;;;-4.86;79.71;98890.00;5012087;28;20120;-77
2022/01/10 08:14:27;;;;;;;16.08;7.68;;;;;;;-4.85;80.18;98904.41;5014803;28;20404;-78
2022/01/10 08:16:52;;;;;;;17.13;7.50;;;;;;;-4.80;79.69;98912.19;5015727;28;20034;-79
2022/01/10 08:19:18;;;;;;;27.05;14.45;;;;;;;-4.79;79.44;98911.38;4983031;28;20040;-77
2022/01/10 08:21:44;;;;;;;16.55;7.85;;;;;;;-4.78;79.92;98901.31;4983058;28;20029;-78
2022/01/10 08:24:09;;;;;;;17.02;7.80;;;;;;;-4.78;79.39;98903.00;5015698;28;20042;-78
2022/01/10 08:26:35;;;;;;;15.15;8.00;;;;;;;-4.80;79.63;98914.72;5016833;28;20061;-77
2022/01/10 08:29:00;;;;;;;15.38;7.10;;;;;;;-4.72;79.67;98906.69;5016589;28;20104;-78
2022/01/10 08:31:26;;;;;;;16.83;7.57;;;;;;;-4.73;79.03;98892.28;5015238;28;20038;-78
2022/01/10 08:33:52;;;;;;;17.00;7.20;;;;;;;-4.73;79.48;98894.81;5015532;28;20038;-77
2022/01/10 08:36:18;;;;;;;19.05;8.25;;;;;;;-4.78;79.01;98890.34;4999366;28;20063;-77
2022/01/10 08:38:43;;;;;;;14.13;7.15;;;;;;;-4.63;79.35;98896.97;4998936;28;20038;-78
2022/01/10 08:41:09;;;;;;;16.98;8.00;;;;;;;-4.57;79.39;98905.59;5015450;28;20045;-76
2022/01/10 08:43:35;;;;;;;16.65;8.38;;;;;;;-4.64;79.13;98910.38;5015519;28;20048;-77
2022/01/10 08:46:00;;;;;;;16.90;8.20;;;;;;;-4.60;79.87;98907.19;5015080;28;20400;-77
2022/01/10 08:48:26;;;;;;;16.23;7.75;;;;;;;-4.52;80.05;98905.00;5015224;28;20046;-78
2022/01/10 08:50:52;;;;;;;14.85;8.07;;;;;;;-4.46;79.55;98914.53;4999262;28;20389;-77
2022/01/10 08:53:17;;;;;;;17.27;8.10;;;;;;;-4.49;79.17;98916.91;4982451;28;20046;-76
2022/01/10 08:55:44;;;;;;;19.00;8.07;;;;;;;-4.48;79.50;98913.59;5016253;28;20042;-77
2022/01/10 08:58:10;;;;;;;14.68;7.93;;;;;;;-4.46;79.51;98919.56;4982900;28;20053;-78
2022/01/10 09:00:35;;;;;;;16.52;8.13;;;;;;;-4.54;78.72;98928.50;5014917;28;20049;-78
2022/01/10 09:03:02;;;;;;;15.80;7.45;;;;;;;-4.55;79.30;98916.66;4998656;28;20133;-78
2022/01/10 09:05:29;;;;;;;;;;;;;;;-4.50;79.34;98918.56;5015261;28;20527;-77
2022/01/10 09:07:58;;;;;;;16.15;7.38;;;;;;;-4.44;79.38;98916.31;5015769;28;19921;-80
2022/01/10 09:10:26;;;;;;;18.85;8.10;;;;;;;-4.39;78.90;98912.31;5015219;28;20042;-78
2022/01/10 09:12:52;;;;;;;18.20;9.07;;;;;;;-4.35;78.43;98913.31;4998614;28;20073;-81
2022/01/10 09:15:17;;;;;;;14.05;7.10;;;;;;;-4.30;79.07;98909.31;5014795;28;20140;-81
2022/01/10 09:17:43;;;;;;;19.10;8.85;;;;;;;-4.39;78.43;98898.81;5016030;28;20088;-78
2022/01/10 09:20:09;;;;;;;15.07;7.40;;;;;;;-4.41;78.64;98901.25;5014379;28;20060;-80
2022/01/10 09:22:35;;;;;;;;;;;;;;;-4.42;78.45;98906.25;5014907;28;20046;-78
2022/01/10 09:25:01;;;;;;;17.67;8.45;;;;;;;-4.39;79.34;98902.19;5015008;28;19967;-78
2022/01/10 09:27:26;;;;;;;15.00;7.50;;;;;;;-4.40;78.13;98909.72;5015655;28;20428;-78
2022/01/10 09:29:52;;;;;;;16.13;7.78;;;;;;;-4.36;78.76;98911.56;5015714;28;20041;-79
2022/01/10 09:32:17;;;;;;;23.92;11.07;;;;;;;-4.42;78.40;98903.72;5015377;28;20123;-79
2022/01/10 09:34:43;;;;;;;14.82;7.97;;;;;;;-4.42;78.85;98908.78;4998020;28;20430;-80
2022/01/10 09:37:09;;;;;;;17.23;8.07;;;;;;;-4.37;79.02;98914.91;5015302;28;20029;-78
2022/01/10 09:39:35;;;;;;;16.50;8.32;;;;;;;-4.34;79.55;98920.13;4997977;28;20122;-78
2022/01/10 09:42:00;;;;;;;17.42;8.32;;;;;;;-4.33;80.00;98913.38;5014240;28;20428;-80
2022/01/10 09:44:26;;;;;;;19.17;8.48;;;;;;;-4.39;79.95;98917.38;5014208;28;20042;-78
2022/01/10 09:46:52;;;;;;;14.98;8.05;;;;;;;-4.37;80.28;98928.44;4997649;28;20029;-77
2022/01/10 09:49:18;;;;;;;17.67;8.02;;;;;;;-4.38;81.00;98913.19;4981872;28;20069;-77
2022/01/10 09:51:43;;;;;;;17.75;8.90;;;;;;;-4.46;80.83;98907.78;5015140;28;20130;-78
2022/01/10 09:54:09;;;;;;;18.38;8.85;;;;;;;-4.39;81.34;98921.59;5015269;28;20040;-79
2022/01/10 09:56:35;;;;;;;19.80;9.25;;;;;;;-4.50;81.07;98918.56;4997473;28;20061;-79
2022/01/10 09:59:01;;;;;;;19.17;9.00;;;;;;;-4.47;81.13;98921.25;5013841;28;20042;-78
2022/01/10 10:01:27;;;;;;;18.90;7.57;;;;;;;-4.44;81.51;98915.47;5014047;28;20393;-83
2022/01/10 10:03:58;;;;;;;19.30;8.68;;;;;;;-4.40;81.70;98919.84;5014014;28;20056;-80
2022/01/10 10:06:24;;;;;;;16.98;9.45;;;;;;;-4.36;82.00;98911.56;5015272;28;20104;-79
2022/01/10 10:08:50;;;;;;;;;;;;;;;-4.30;82.15;98916.91;5014287;28;20540;-78
2022/01/10 10:11:16;;;;;;;20.60;8.23;;;;;;;-4.25;82.33;98925.56;4997480;28;19953;-78
2022/01/10 10:13:54;;;;;;;19.42;8.85;;;;;;;-4.26;81.52;98920.41;5014900;28;20045;-79
2022/01/10 10:16:21;;;;;;;15.77;8.50;;;;;;;-4.19;82.06;98913.16;4966440;28;20420;-79
2022/01/10 10:18:47;;;;;;;14.82;8.85;;;;;;;-4.19;81.68;98900.50;5013533;28;20038;-77
2022/01/10 10:21:14;;;;;;;20.70;9.05;;;;;;;-4.13;81.36;98904.94;5014656;28;20049;-80
2022/01/10 10:23:41;;;;;;;20.27;8.95;;;;;;;-4.11;81.51;98914.34;5014894;28;20042;-78
2022/01/10 10:26:07;;;;;;;19.50;8.35;;;;;;;-4.12;81.00;98906.69;5013589;28;20524;-78
2022/01/10 10:28:35;;;;;;;23.70;9.63;;;;;;;-4.12;80.33;98907.56;4997008;28;20034;-77
2022/01/10 10:31:01;;;;;;;17.77;7.80;;;;;;;-4.16;80.15;98895.56;4997014;28;20057;-78
2022/01/10 10:33:27;;;;;;;18.77;8.88;;;;;;;-4.27;79.63;98896.78;4981195;28;20431;-81
2022/01/10 10:35:58;;;;;;;19.95;7.65;;;;;;;-4.20;80.17;98913.09;4981090;28;20050;-78
2022/01/10 10:38:25;;;;;;;18.00;8.30;;;;;;;-4.25;79.61;98912.03;5012742;28;20049;-80
2022/01/10 10:40:51;;;;;;;17.00;6.70;;;;;;;-4.21;79.74;98921.50;4996920;28;20033;-81
2022/01/10 10:43:16;;;;;;;13.00;6.57;;;;;;;-4.17;80.24;98930.94;5013342;28;20046;-82
2022/01/10 10:45:43;;;;;;;16.70;6.60;;;;;;;-4.17;79.78;98934.38;5013168;28;20497;-82
2022/01/10 10:48:10;;;;;;;15.48;6.65;;;;;;;-4.29;79.91;98917.78;4980714;28;20491;-78
2022/01/10 10:50:46;;;;;;;14.27;6.30;;;;;;;-4.26;81.10;98933.09;5013061;28;20033;-77
2022/01/10 10:53:13;;;;;;;14.02;6.55;;;;;;;-4.32;81.09;98928.63;5013222;28;20394;-80
2022/01/10 10:55:40;;;;;;;11.82;6.32;;;;;;;-4.31;81.48;98937.94;4996560;28;20038;-79
2022/01/10 10:58:10;;;;;;;10.35;6.30;;;;;;;-4.31;81.16;98952.28;4996712;28;20042;-79
2022/01/10 11:00:35;;;;;;;13.38;6.22;;;;;;;-4.32;81.17;98940.44;4996269;28;20045;-79
2022/01/10 11:03:01;;;;;;;12.48;5.72;;;;;;;-4.30;81.64;98942.25;4996660;28;20184;-79
2022/01/10 11:05:27;;;;;;;13.32;5.95;;;;;;;-4.31;81.07;98940.47;4980583;28;20053;-79
2022/01/10 11:07:53;;;;;;;15.30;6.28;;;;;;;-4.27;81.76;98937.28;4996390;28;20509;-80
2022/01/10 11:10:18;;;;;;;12.25;5.93;;;;;;;-4.27;81.03;98927.16;4996550;28;20444;-77
2022/01/10 11:12:52;;;;;;;11.77;6.10;;;;;;;-4.25;81.35;98940.75;5012317;28;20057;-81
2022/01/10 11:15:18;;;;;;;13.65;6.30;;;;;;;-4.26;80.96;98939.03;5012756;28;20121;-78
2022/01/10 11:17:44;;;;;;;12.52;5.82;;;;;;;-4.18;81.06;98944.41;5012364;28;20517;-77
2022/01/10 11:20:10;;;;;;;14.38;6.47;;;;;;;-4.24;81.23;98939.97;5013852;28;20405;-76
2022/01/10 11:22:43;;;;;;;11.20;5.95;;;;;;;-4.23;80.71;98940.81;5013425;28;20400;-78
2022/01/10 11:25:28;;;;;;;13.32;6.13;;;;;;;-4.30;80.64;98932.09;5012507;28;20113;-80
2022/01/10 11:27:57;;;;;;;12.55;6.13;;;;;;;-4.26;80.55;98928.00;5012088;28;20154;-78
2022/01/10 11:30:28;;;;;;;12.93;6.40;;;;;;;-4.19;80.98;98925.81;4980444;28;20037;-80
2022/01/10 11:33:03;;;;;;;13.45;6.38;;;;;;;-4.22;80.25;98935.81;5013567;28;20038;-77
2022/01/10 11:35:45;;;;;;;13.82;6.10;;;;;;;-4.25;80.30;98935.69;4964907;28;20563;-77
2022/01/10 11:38:25;;;;;;;14.05;5.80;;;;;;;-4.25;80.33;98935.69;4996465;28;20096;-79
2022/01/10 11:41:12;;;;;;;14.48;7.18;;;;;;;-4.31;80.08;98934.56;5012151;28;20154;-79